sensor_id;sensor_type;location;lat;lon;timestamp;pressure;altitude;pressure_sealevel;temperature;humidity
54910;BME280;63189;51.240;9.964;2023-02-21T00:00:32;98084.56;;;7.14;100.00
54910;BME280;63189;51.240;9.964;2023-02-21T00:03:16;98093.19;;;7.14;100.00
54910;BME280;63189;51.240;9.964;2023-02-21T00:06:00;98088.06;;;7.11;100.00
54910;BME280;63189;51.240;9.964;2023-02-21T00:08:45;98077.69;;;7.11;100.00
54910;BME280;63189;51.240;9.964;2023-02-21T00:11:28;98079.34;;;7.15;100.00
54910;BME280;63189;51.240;9.964;2023-02-21T00:14:12;98081.94;;;7.15;100.00
54910;BME280;63189;51.240;9.964;2023-02-21T00:16:56;98087.13;;;7.15;100.00
54910;BME280;63189;51.240;9.964;2023-02-21T00:19:40;98090.50;;;7.19;100.00
54910;BME280;63189;51.240;9.964;2023-02-21T00:22:24;98093.13;;;7.17;100.00
54910;BME280;63189;51.240;9.964;2023-02-21T00:25:08;98087.19;;;7.12;100.00
54910;BME280;63189;51.240;9.964;2023-02-21T00:27:52;98091.53;;;7.10;100.00
54910;BME280;63189;51.240;9.964;2023-02-21T00:30:36;98088.88;;;7.13;100.00
54910;BME280;63189;51.240;9.964;2023-02-21T00:33:20;98091.44;;;7.15;100.00
54910;BME280;63189;51.240;9.964;2023-02-21T00:36:04;98088.84;;;7.16;100.00
54910;BME280;63189;51.240;9.964;2023-02-21T00:38:48;98088.81;;;7.19;100.00
54910;BME280;63189;51.240;9.964;2023-02-21T00:41:32;98071.50;;;7.20;100.00
54910;BME280;63189;51.240;9.964;2023-02-21T00:44:15;98078.41;;;7.21;100.00
54910;BME280;63189;51.240;9.964;2023-02-21T00:46:59;98075.88;;;7.16;100.00
54910;BME280;63189;51.240;9.964;2023-02-21T00:49:43;98074.97;;;7.20;100.00
54910;BME280;63189;51.240;9.964;2023-02-21T00:52:27;98063.72;;;7.20;100.00
54910;BME280;63189;51.240;9.964;2023-02-21T00:55:12;98061.13;;;7.21;100.00
54910;BME280;63189;51.240;9.964;2023-02-21T00:57:56;98058.56;;;7.17;100.00
54910;BME280;63189;51.240;9.964;2023-02-21T01:00:40;98054.28;;;7.14;100.00
54910;BME280;63189;51.240;9.964;2023-02-21T01:03:24;98060.28;;;7.19;100.00
54910;BME280;63189;51.240;9.964;2023-02-21T01:06:09;98063.72;;;7.18;100.00
54910;BME280;63189;51.240;9.964;2023-02-21T01:08:53;98062.00;;;7.20;100.00
54910;BME280;63189;51.240;9.964;2023-02-21T01:11:38;98065.41;;;7.22;100.00
54910;BME280;63189;51.240;9.964;2023-02-21T01:14:22;98061.03;;;7.26;100.00
54910;BME280;63189;51.240;9.964;2023-02-21T01:17:06;98044.59;;;7.27;100.00
54910;BME280;63189;51.240;9.964;2023-02-21T01:19:50;98049.78;;;7.26;100.00
54910;BME280;63189;51.240;9.964;2023-02-21T01:22:34;98040.25;;;7.28;100.00
54910;BME280;63189;51.240;9.964;2023-02-21T01:25:18;98044.56;;;7.29;100.00
54910;BME280;63189;51.240;9.964;2023-02-21T01:28:02;98043.69;;;7.30;100.00
54910;BME280;63189;51.240;9.964;2023-02-21T01:30:46;98049.72;;;7.32;100.00
54910;BME280;63189;51.240;9.964;2023-02-21T01:33:40;98048.00;;;7.31;100.00
54910;BME280;63189;51.240;9.964;2023-02-21T01:36:25;98054.94;;;7.29;100.00
54910;BME280;63189;51.240;9.964;2023-02-21T01:39:09;98045.41;;;7.31;100.00
54910;BME280;63189;51.240;9.964;2023-02-21T01:41:54;98051.38;;;7.36;100.00
54910;BME280;63189;51.240;9.964;2023-02-21T01:44:40;98055.75;;;7.32;100.00
54910;BME280;63189;51.240;9.964;2023-02-21T01:47:25;98055.66;;;7.37;100.00
54910;BME280;63189;51.240;9.964;2023-02-21T01:50:22;98057.44;;;7.35;100.00
54910;BME280;63189;51.240;9.964;2023-02-21T01:53:15;98055.72;;;7.34;100.00
54910;BME280;63189;51.240;9.964;2023-02-21T01:56:01;98047.13;;;7.32;100.00
54910;BME280;63189;51.240;9.964;2023-02-21T01:58:48;98037.59;;;7.32;100.00
54910;BME280;63189;51.240;9.964;2023-02-21T02:01:45;98041.94;;;7.32;100.00
54910;BME280;63189;51.240;9.964;2023-02-21T02:04:30;98035.88;;;7.33;100.00
54910;BME280;63189;51.240;9.964;2023-02-21T02:07:15;98034.94;;;7.35;100.00
54910;BME280;63189;51.240;9.964;2023-02-21T02:09:59;98047.09;;;7.33;100.00
54910;BME280;63189;51.240;9.964;2023-02-21T02:12:52;98038.47;;;7.33;100.00
54910;BME280;63189;51.240;9.964;2023-02-21T02:27:09;98034.03;;;7.38;100.00
54910;BME280;63189;51.240;9.964;2023-02-21T02:32:37;98044.38;;;7.41;100.00
54910;BME280;63189;51.240;9.964;2023-02-21T02:37:57;98039.22;;;7.38;100.00
54910;BME280;63189;51.240;9.964;2023-02-21T02:40:49;98039.22;;;7.38;100.00
54910;BME280;63189;51.240;9.964;2023-02-21T02:43:19;98040.94;;;7.40;100.00
54910;BME280;63189;51.240;9.964;2023-02-21T02:45:50;98038.34;;;7.39;100.00
54910;BME280;63189;51.240;9.964;2023-02-21T02:48:22;98035.75;;;7.39;100.00
54910;BME280;63189;51.240;9.964;2023-02-21T02:50:49;98041.00;;;7.36;100.00
54910;BME280;63189;51.240;9.964;2023-02-21T02:53:19;98028.00;;;7.37;100.00
54910;BME280;63189;51.240;9.964;2023-02-21T02:55:51;98016.75;;;7.37;100.00
54910;BME280;63189;51.240;9.964;2023-02-21T02:58:18;98022.78;;;7.39;100.00
54910;BME280;63189;51.240;9.964;2023-02-21T03:01:19;98017.63;;;7.37;100.00
54910;BME280;63189;51.240;9.964;2023-02-21T03:03:51;98024.56;;;7.35;100.00
54910;BME280;63189;51.240;9.964;2023-02-21T03:09:12;98031.41;;;7.39;100.00
54910;BME280;63189;51.240;9.964;2023-02-21T03:11:47;98024.47;;;7.40;100.00
54910;BME280;63189;51.240;9.964;2023-02-21T03:14:16;98023.66;;;7.38;100.00
54910;BME280;63189;51.240;9.964;2023-02-21T03:16:47;98016.00;;;7.32;100.00
54910;BME280;63189;51.240;9.964;2023-02-21T03:19:17;98024.59;;;7.34;100.00
54910;BME280;63189;51.240;9.964;2023-02-21T03:21:48;98041.91;;;7.33;100.00
54910;BME280;63189;51.240;9.964;2023-02-21T03:24:16;98060.94;;;7.32;100.00
54910;BME280;63189;51.240;9.964;2023-02-21T03:26:45;98043.66;;;7.31;100.00
54910;BME280;63189;51.240;9.964;2023-02-21T03:29:11;98050.53;;;7.34;100.00
54910;BME280;63189;51.240;9.964;2023-02-21T03:31:43;98048.84;;;7.33;100.00
54910;BME280;63189;51.240;9.964;2023-02-21T03:34:10;98058.38;;;7.31;100.00
54910;BME280;63189;51.240;9.964;2023-02-21T03:36:39;98044.56;;;7.29;100.00
54910;BME280;63189;51.240;9.964;2023-02-21T03:39:04;98047.97;;;7.32;100.00
54910;BME280;63189;51.240;9.964;2023-02-21T03:41:30;98051.47;;;7.30;100.00
54910;BME280;63189;51.240;9.964;2023-02-21T03:43:55;98048.81;;;7.34;100.00
54910;BME280;63189;51.240;9.964;2023-02-21T03:46:21;98043.59;;;7.36;100.00
54910;BME280;63189;51.240;9.964;2023-02-21T03:48:46;98045.31;;;7.35;100.00
54910;BME280;63189;51.240;9.964;2023-02-21T03:51:11;98044.53;;;7.32;100.00
54910;BME280;63189;51.240;9.964;2023-02-21T03:53:37;98043.66;;;7.31;100.00
54910;BME280;63189;51.240;9.964;2023-02-21T03:56:02;98050.53;;;7.34;100.00
54910;BME280;63189;51.240;9.964;2023-02-21T03:58:28;98044.53;;;7.32;100.00
54910;BME280;63189;51.240;9.964;2023-02-21T04:00:53;98046.28;;;7.30;100.00
54910;BME280;63189;51.240;9.964;2023-02-21T04:03:19;98035.06;;;7.28;100.00
54910;BME280;63189;51.240;9.964;2023-02-21T04:05:44;98046.34;;;7.25;100.00
54910;BME280;63189;51.240;9.964;2023-02-21T04:08:09;98036.88;;;7.24;100.00
54910;BME280;63189;51.240;9.964;2023-02-21T04:10:35;98047.22;;;7.24;100.00
54910;BME280;63189;51.240;9.964;2023-02-21T04:13:00;98041.16;;;7.25;100.00
54910;BME280;63189;51.240;9.964;2023-02-21T04:15:26;98048.94;;;7.25;100.00
54910;BME280;63189;51.240;9.964;2023-02-21T04:17:51;98042.84;;;7.28;100.00
54910;BME280;63189;51.240;9.964;2023-02-21T04:20:16;98039.44;;;7.26;100.00
54910;BME280;63189;51.240;9.964;2023-02-21T04:22:42;98036.91;;;7.21;100.00
54910;BME280;63189;51.240;9.964;2023-02-21T04:25:07;98040.41;;;7.20;100.00
54910;BME280;63189;51.240;9.964;2023-02-21T04:27:33;98036.91;;;7.21;100.00
54910;BME280;63189;51.240;9.964;2023-02-21T04:29:59;98036.88;;;7.22;100.00
54910;BME280;63189;51.240;9.964;2023-02-21T04:32:24;98036.06;;;7.20;100.00
54910;BME280;63189;51.240;9.964;2023-02-21T04:34:50;98042.06;;;7.22;100.00
54910;BME280;63189;51.240;9.964;2023-02-21T04:37:15;98042.06;;;7.22;100.00
54910;BME280;63189;51.240;9.964;2023-02-21T04:39:40;98036.88;;;7.22;100.00
54910;BME280;63189;51.240;9.964;2023-02-21T04:42:06;98034.25;;;7.26;100.00
54910;BME280;63189;51.240;9.964;2023-02-21T04:44:31;98035.94;;;7.27;100.00
54910;BME280;63189;51.240;9.964;2023-02-21T04:46:56;98035.97;;;7.25;100.00
54910;BME280;63189;51.240;9.964;2023-02-21T04:49:22;98038.56;;;7.25;100.00
54910;BME280;63189;51.240;9.964;2023-02-21T04:51:50;98032.47;;;7.28;100.00
54910;BME280;63189;51.240;9.964;2023-02-21T04:54:15;98035.94;;;7.27;100.00
54910;BME280;63189;51.240;9.964;2023-02-21T04:56:40;98031.66;;;7.26;100.00
54910;BME280;63189;51.240;9.964;2023-02-21T04:59:07;98022.16;;;7.24;100.00
54910;BME280;63189;51.240;9.964;2023-02-21T05:01:33;98013.50;;;7.26;100.00
54910;BME280;63189;51.240;9.964;2023-02-21T05:03:58;98016.09;;;7.26;100.00
54910;BME280;63189;51.240;9.964;2023-02-21T05:06:26;98019.50;;;7.28;100.00
54910;BME280;63189;51.240;9.964;2023-02-21T05:08:51;98015.19;;;7.27;100.00
54910;BME280;63189;51.240;9.964;2023-02-21T05:11:18;98023.88;;;7.26;100.00
54910;BME280;63189;51.240;9.964;2023-02-21T05:13:44;98020.44;;;7.23;100.00
54910;BME280;63189;51.240;9.964;2023-02-21T05:16:10;98016.19;;;7.21;100.00
54910;BME280;63189;51.240;9.964;2023-02-21T05:18:35;98011.06;;;7.15;100.00
54910;BME280;63189;51.240;9.964;2023-02-21T05:21:04;98007.63;;;7.14;100.00
54910;BME280;63189;51.240;9.964;2023-02-21T05:23:30;98009.34;;;7.15;100.00
54910;BME280;63189;51.240;9.964;2023-02-21T05:26:04;98009.44;;;7.09;100.00
54910;BME280;63189;51.240;9.964;2023-02-21T05:28:30;97999.06;;;7.08;100.00
54910;BME280;63189;51.240;9.964;2023-02-21T05:30:57;97997.41;;;7.05;100.00
54910;BME280;63189;51.240;9.964;2023-02-21T05:33:23;97994.84;;;7.04;100.00
54910;BME280;63189;51.240;9.964;2023-02-21T05:35:49;97997.38;;;7.07;100.00
54910;BME280;63189;51.240;9.964;2023-02-21T05:38:16;97995.69;;;7.04;100.00
54910;BME280;63189;51.240;9.964;2023-02-21T05:40:42;98002.59;;;7.04;100.00
54910;BME280;63189;51.240;9.964;2023-02-21T05:43:07;98005.19;;;7.05;100.00
54910;BME280;63189;51.240;9.964;2023-02-21T05:45:32;98005.22;;;7.02;100.00
54910;BME280;63189;51.240;9.964;2023-02-21T05:47:58;98001.69;;;7.06;100.00
54910;BME280;63189;51.240;9.964;2023-02-21T05:50:26;97987.91;;;7.04;100.00
54910;BME280;63189;51.240;9.964;2023-02-21T05:52:52;98004.28;;;7.09;100.00
54910;BME280;63189;51.240;9.964;2023-02-21T05:55:17;98010.31;;;7.08;100.00
54910;BME280;63189;51.240;9.964;2023-02-21T05:57:43;98007.72;;;7.10;100.00
54910;BME280;63189;51.240;9.964;2023-02-21T06:00:20;98004.22;;;7.12;100.00
54910;BME280;63189;51.240;9.964;2023-02-21T06:02:48;98004.16;;;7.15;100.00
54910;BME280;63189;51.240;9.964;2023-02-21T06:05:15;98004.16;;;7.15;100.00
54910;BME280;63189;51.240;9.964;2023-02-21T06:07:40;98004.16;;;7.15;100.00
54910;BME280;63189;51.240;9.964;2023-02-21T06:10:05;98005.00;;;7.16;100.00
54910;BME280;63189;51.240;9.964;2023-02-21T06:12:31;98010.22;;;7.14;100.00
54910;BME280;63189;51.240;9.964;2023-02-21T06:14:56;98010.19;;;7.16;100.00
54910;BME280;63189;51.240;9.964;2023-02-21T06:17:21;98010.16;;;7.17;100.00
54910;BME280;63189;51.240;9.964;2023-02-21T06:19:47;97997.22;;;7.16;100.00
54910;BME280;63189;51.240;9.964;2023-02-21T06:22:12;98004.13;;;7.17;100.00
54910;BME280;63189;51.240;9.964;2023-02-21T06:24:38;98010.13;;;7.19;100.00
54910;BME280;63189;51.240;9.964;2023-02-21T06:27:03;98005.94;;;7.12;100.00
54910;BME280;63189;51.240;9.964;2023-02-21T06:29:29;98004.22;;;7.12;100.00
54910;BME280;63189;51.240;9.964;2023-02-21T06:31:58;98013.69;;;7.13;100.00
54910;BME280;63189;51.240;9.964;2023-02-21T06:34:24;98010.25;;;7.13;100.00
54910;BME280;63189;51.240;9.964;2023-02-21T06:36:53;98016.22;;;7.16;100.00
54910;BME280;63189;51.240;9.964;2023-02-21T06:39:19;98015.41;;;7.14;100.00
54910;BME280;63189;51.240;9.964;2023-02-21T06:41:45;98029.19;;;7.16;100.00
54910;BME280;63189;51.240;9.964;2023-02-21T06:44:11;98016.28;;;7.13;100.00
54910;BME280;63189;51.240;9.964;2023-02-21T06:46:36;98018.81;;;7.16;100.00
54910;BME280;63189;51.240;9.964;2023-02-21T06:49:03;98013.63;;;7.19;100.00
54910;BME280;63189;51.240;9.964;2023-02-21T06:51:33;98015.31;;;7.20;100.00
54910;BME280;63189;51.240;9.964;2023-02-21T06:53:59;98020.50;;;7.20;100.00
54910;BME280;63189;51.240;9.964;2023-02-21T06:56:24;98017.91;;;7.20;100.00
54910;BME280;63189;51.240;9.964;2023-02-21T06:58:50;98007.53;;;7.19;100.00
54910;BME280;63189;51.240;9.964;2023-02-21T07:01:15;98013.63;;;7.19;100.00
54910;BME280;63189;51.240;9.964;2023-02-21T07:03:40;98010.16;;;7.17;100.00
54910;BME280;63189;51.240;9.964;2023-02-21T07:06:07;98023.97;;;7.19;100.00
54910;BME280;63189;51.240;9.964;2023-02-21T07:08:33;98018.78;;;7.19;100.00
54910;BME280;63189;51.240;9.964;2023-02-21T07:10:58;98017.91;;;7.19;100.00
54910;BME280;63189;51.240;9.964;2023-02-21T07:13:23;98016.16;;;7.22;100.00
54910;BME280;63189;51.240;9.964;2023-02-21T07:15:49;98016.09;;;7.26;100.00
54910;BME280;63189;51.240;9.964;2023-02-21T07:18:14;98020.41;;;7.25;100.00
54910;BME280;63189;51.240;9.964;2023-02-21T07:20:39;98024.78;;;7.23;100.00
54910;BME280;63189;51.240;9.964;2023-02-21T07:23:04;98025.59;;;7.25;100.00
54910;BME280;63189;51.240;9.964;2023-02-21T07:25:30;98036.78;;;7.30;100.00
54910;BME280;63189;51.240;9.964;2023-02-21T07:27:55;98037.63;;;7.29;100.00
54910;BME280;63189;51.240;9.964;2023-02-21T07:30:20;98038.50;;;7.30;100.00
54910;BME280;63189;51.240;9.964;2023-02-21T07:32:46;98047.09;;;7.33;100.00
54910;BME280;63189;51.240;9.964;2023-02-21T07:35:12;98042.75;;;7.34;100.00
54910;BME280;63189;51.240;9.964;2023-02-21T07:37:37;98041.00;;;7.36;100.00
54910;BME280;63189;51.240;9.964;2023-02-21T07:40:04;98045.31;;;7.35;100.00
54910;BME280;63189;51.240;9.964;2023-02-21T07:42:31;98049.66;;;7.35;100.00
54910;BME280;63189;51.240;9.964;2023-02-21T07:44:57;98047.94;;;7.34;100.00
54910;BME280;63189;51.240;9.964;2023-02-21T07:47:24;98049.72;;;7.32;100.00
54910;BME280;63189;51.240;9.964;2023-02-21T07:49:49;98052.25;;;7.35;100.00
54910;BME280;63189;51.240;9.964;2023-02-21T07:52:16;98049.59;;;7.38;100.00
54910;BME280;63189;51.240;9.964;2023-02-21T07:54:41;98053.00;;;7.40;100.00
54910;BME280;63189;51.240;9.964;2023-02-21T07:57:06;98051.31;;;7.40;100.00
54910;BME280;63189;51.240;9.964;2023-02-21T07:59:32;98050.41;;;7.40;100.00
54910;BME280;63189;51.240;9.964;2023-02-21T08:01:57;98045.22;;;7.43;100.00
54910;BME280;63189;51.240;9.964;2023-02-21T08:04:23;98047.75;;;7.46;100.00
54910;BME280;63189;51.240;9.964;2023-02-21T08:06:48;98051.97;;;7.50;100.00
54910;BME280;63189;51.240;9.964;2023-02-21T08:09:14;98066.69;;;7.49;100.00
54910;BME280;63189;51.240;9.964;2023-02-21T08:11:39;98060.66;;;7.50;100.00
54910;BME280;63189;51.240;9.964;2023-02-21T08:14:05;98060.63;;;7.52;100.00
54910;BME280;63189;51.240;9.964;2023-02-21T08:16:30;98058.88;;;7.52;100.00
54910;BME280;63189;51.240;9.964;2023-02-21T08:18:56;98058.81;;;7.56;100.00
54910;BME280;63189;51.240;9.964;2023-02-21T08:21:21;98062.25;;;7.58;100.00
54910;BME280;63189;51.240;9.964;2023-02-21T08:23:46;98074.31;;;7.59;100.00
54910;BME280;63189;51.240;9.964;2023-02-21T08:26:12;98076.06;;;7.58;100.00
54910;BME280;63189;51.240;9.964;2023-02-21T08:28:37;98069.19;;;7.56;100.00
54910;BME280;63189;51.240;9.964;2023-02-21T08:31:02;98070.88;;;7.58;100.00
54910;BME280;63189;51.240;9.964;2023-02-21T08:33:28;98070.94;;;7.55;100.00
54910;BME280;63189;51.240;9.964;2023-02-21T08:35:53;98080.44;;;7.56;100.00
54910;BME280;63189;51.240;9.964;2023-02-21T08:38:20;98083.06;;;7.55;100.00
54910;BME280;63189;51.240;9.964;2023-02-21T08:40:45;98081.38;;;7.52;100.00
54910;BME280;63189;51.240;9.964;2023-02-21T08:43:10;98076.22;;;7.49;100.00
54910;BME280;63189;51.240;9.964;2023-02-21T08:45:36;98084.00;;;7.49;100.00
54910;BME280;63189;51.240;9.964;2023-02-21T08:48:02;98077.97;;;7.48;100.00
54910;BME280;63189;51.240;9.964;2023-02-21T08:50:28;98085.72;;;7.50;100.00
54910;BME280;63189;51.240;9.964;2023-02-21T08:52:53;98086.59;;;7.49;100.00
54910;BME280;63189;51.240;9.964;2023-02-21T08:55:19;98081.41;;;7.50;100.00
54910;BME280;63189;51.240;9.964;2023-02-21T08:57:50;98086.56;;;7.52;100.00
54910;BME280;63189;51.240;9.964;2023-02-21T09:00:17;98085.63;;;7.56;100.00
54910;BME280;63189;51.240;9.964;2023-02-21T09:02:42;98083.88;;;7.57;100.00
54910;BME280;63189;51.240;9.964;2023-02-21T09:05:10;98089.03;;;7.58;100.00
54910;BME280;63189;51.240;9.964;2023-02-21T09:07:36;98091.59;;;7.60;100.00
54910;BME280;63189;51.240;9.964;2023-02-21T09:10:03;98098.47;;;7.64;100.00
54910;BME280;63189;51.240;9.964;2023-02-21T09:12:29;98089.84;;;7.63;100.00
54910;BME280;63189;51.240;9.964;2023-02-21T09:14:54;98088.13;;;7.62;100.00
54910;BME280;63189;51.240;9.964;2023-02-21T09:17:19;98088.06;;;7.65;100.00
54910;BME280;63189;51.240;9.964;2023-02-21T09:19:45;98089.78;;;7.66;100.00
54910;BME280;63189;51.240;9.964;2023-02-21T09:22:10;98082.84;;;7.67;100.00
54910;BME280;63189;51.240;9.964;2023-02-21T09:24:36;98085.44;;;7.67;100.00
54910;BME280;63189;51.240;9.964;2023-02-21T09:27:02;98085.41;;;7.68;100.00
54910;BME280;63189;51.240;9.964;2023-02-21T09:29:33;98081.06;;;7.69;100.00
54910;BME280;63189;51.240;9.964;2023-02-21T09:31:59;98084.50;;;7.72;100.00
54910;BME280;63189;51.240;9.964;2023-02-21T09:34:25;98092.22;;;7.75;100.00
54910;BME280;63189;51.240;9.964;2023-02-21T09:36:50;98090.44;;;7.77;100.00
54910;BME280;63189;51.240;9.964;2023-02-21T09:39:17;98093.00;;;7.80;100.00
54910;BME280;63189;51.240;9.964;2023-02-21T09:41:43;98098.19;;;7.82;100.00
54910;BME280;63189;51.240;9.964;2023-02-21T09:44:12;98099.03;;;7.82;100.00
54910;BME280;63189;51.240;9.964;2023-02-21T09:46:43;98101.56;;;7.86;100.00
54910;BME280;63189;51.240;9.964;2023-02-21T09:49:29;98106.72;;;7.87;100.00
54910;BME280;63189;51.240;9.964;2023-02-21T09:51:55;98103.25;;;7.88;100.00
54910;BME280;63189;51.240;9.964;2023-02-21T09:54:36;98111.84;;;7.90;100.00
54910;BME280;63189;51.240;9.964;2023-02-21T09:57:06;98108.41;;;7.90;100.00
54910;BME280;63189;51.240;9.964;2023-02-21T09:59:35;98112.78;;;7.88;100.00
54910;BME280;63189;51.240;9.964;2023-02-21T10:07:58;98116.25;;;7.87;100.00
54910;BME280;63189;51.240;9.964;2023-02-21T10:10:29;98119.69;;;7.89;100.00
54910;BME280;63189;51.240;9.964;2023-02-21T10:15:44;98118.75;;;7.91;100.00
54910;BME280;63189;51.240;9.964;2023-02-21T10:18:27;98124.81;;;7.92;100.00
54910;BME280;63189;51.240;9.964;2023-02-21T10:20:58;98110.97;;;7.93;100.00
54910;BME280;63189;51.240;9.964;2023-02-21T10:23:38;98119.59;;;7.95;100.00
54910;BME280;63189;51.240;9.964;2023-02-21T10:26:10;98114.34;;;7.96;100.00
54910;BME280;63189;51.240;9.964;2023-02-21T10:28:37;98114.34;;;7.96;100.00
54910;BME280;63189;51.240;9.964;2023-02-21T10:31:10;98121.22;;;7.99;100.00
54910;BME280;63189;51.240;9.964;2023-02-21T10:33:38;98120.31;;;8.01;100.00
54910;BME280;63189;51.240;9.964;2023-02-21T10:36:12;98123.72;;;8.05;100.00
54910;BME280;63189;51.240;9.964;2023-02-21T10:38:37;98131.53;;;8.05;100.00
54910;BME280;63189;51.240;9.964;2023-02-21T10:41:06;98126.28;;;8.08;100.00
54910;BME280;63189;51.240;9.964;2023-02-21T10:43:38;98131.47;;;8.08;100.00
54910;BME280;63189;51.240;9.964;2023-02-21T10:46:22;98131.41;;;8.11;100.00
54910;BME280;63189;51.240;9.964;2023-02-21T10:48:52;98129.69;;;8.10;100.00
54910;BME280;63189;51.240;9.964;2023-02-21T10:51:32;98132.25;;;8.13;100.00
54910;BME280;63189;51.240;9.964;2023-02-21T10:56:43;98136.59;;;8.11;100.00
54910;BME280;63189;51.240;9.964;2023-02-21T10:59:18;98132.31;;;8.08;100.00
54910;BME280;63189;51.240;9.964;2023-02-21T11:01:47;98126.34;;;8.05;100.00
54910;BME280;63189;51.240;9.964;2023-02-21T11:07:03;98135.03;;;8.01;100.00
54910;BME280;63189;51.240;9.964;2023-02-21T11:09:45;98121.22;;;7.99;100.00
54910;BME280;63189;51.240;9.964;2023-02-21T11:12:27;98112.56;;;8.00;100.00
54910;BME280;63189;51.240;9.964;2023-02-21T11:17:22;98118.53;;;8.05;100.00
54910;BME280;63189;51.240;9.964;2023-02-21T11:19:55;98110.78;;;8.02;100.00
54910;BME280;63189;51.240;9.964;2023-02-21T11:22:45;98109.03;;;8.04;100.00
54910;BME280;63189;51.240;9.964;2023-02-21T11:25:38;98112.50;;;8.04;100.00
54910;BME280;63189;51.240;9.964;2023-02-21T11:30:39;98095.09;;;8.08;100.00
54910;BME280;63189;51.240;9.964;2023-02-21T11:33:08;98088.16;;;8.08;100.00
54910;BME280;63189;51.240;9.964;2023-02-21T11:35:38;98089.84;;;8.11;100.00
54910;BME280;63189;51.240;9.964;2023-02-21T11:38:10;98089.84;;;8.11;100.00
54910;BME280;63189;51.240;9.964;2023-02-21T11:40:53;98085.47;;;8.15;100.00
54910;BME280;63189;51.240;9.964;2023-02-21T11:43:25;98081.91;;;8.19;100.00
54910;BME280;63189;51.240;9.964;2023-02-21T11:46:17;98075.81;;;8.21;100.00
54910;BME280;63189;51.240;9.964;2023-02-21T11:48:56;98081.84;;;8.23;100.00
54910;BME280;63189;51.240;9.964;2023-02-21T11:51:38;98077.50;;;8.22;100.00
54910;BME280;63189;51.240;9.964;2023-02-21T11:54:05;98074.91;;;8.24;100.00
54910;BME280;63189;51.240;9.964;2023-02-21T11:56:58;98069.72;;;8.24;100.00
54910;BME280;63189;51.240;9.964;2023-02-21T11:59:45;98071.41;;;8.26;100.00
54910;BME280;63189;51.240;9.964;2023-02-21T12:16:09;98054.81;;;8.35;100.00
54910;BME280;63189;51.240;9.964;2023-02-21T12:18:51;98055.63;;;8.37;100.00
54910;BME280;63189;51.240;9.964;2023-02-21T12:24:16;98052.81;;;8.48;100.00
54910;BME280;63189;51.240;9.964;2023-02-21T12:26:55;98041.50;;;8.50;100.00
54910;BME280;63189;51.240;9.964;2023-02-21T12:30:24;98039.81;;;8.48;100.00
54910;BME280;63189;51.240;9.964;2023-02-21T12:32:43;98039.63;;;8.57;100.00
54910;BME280;63189;51.240;9.964;2023-02-21T12:35:39;98040.41;;;8.60;100.00
54910;BME280;63189;51.240;9.964;2023-02-21T12:44:11;98027.03;;;8.79;100.00
54910;BME280;63189;51.240;9.964;2023-02-21T12:49:12;98024.28;;;8.85;100.00
54910;BME280;63189;51.240;9.964;2023-02-21T12:51:46;98019.84;;;8.90;100.00
54910;BME280;63189;51.240;9.964;2023-02-21T12:54:21;98027.53;;;8.94;100.00
54910;BME280;63189;51.240;9.964;2023-02-21T12:56:57;98023.97;;;8.99;100.00
54910;BME280;63189;51.240;9.964;2023-02-21T13:02:15;98020.41;;;9.03;100.00
54910;BME280;63189;51.240;9.964;2023-02-21T13:04:47;98013.38;;;9.08;100.00
54910;BME280;63189;51.240;9.964;2023-02-21T13:07:24;98012.44;;;9.10;100.00
54910;BME280;63189;51.240;9.964;2023-02-21T13:12:32;98012.25;;;9.16;100.00
54910;BME280;63189;51.240;9.964;2023-02-21T13:15:08;98009.66;;;9.18;100.00
54910;BME280;63189;51.240;9.964;2023-02-21T13:17:39;98006.19;;;9.17;100.00
54910;BME280;63189;51.240;9.964;2023-02-21T13:20:09;98010.50;;;9.18;100.00
54910;BME280;63189;51.240;9.964;2023-02-21T13:28:57;98001.06;;;9.14;100.00
54910;BME280;63189;51.240;9.964;2023-02-21T13:31:31;97996.75;;;9.13;100.00
54910;BME280;63189;51.240;9.964;2023-02-21T13:34:06;98006.22;;;9.16;100.00
54910;BME280;63189;51.240;9.964;2023-02-21T13:36:40;98001.06;;;9.14;100.00
54910;BME280;63189;51.240;9.964;2023-02-21T13:39:26;98002.78;;;9.14;100.00
54910;BME280;63189;51.240;9.964;2023-02-21T13:42:04;97998.53;;;9.11;100.00
54910;BME280;63189;51.240;9.964;2023-02-21T13:44:31;97991.63;;;9.10;100.00
54910;BME280;63189;51.240;9.964;2023-02-21T13:49:48;97993.47;;;9.05;100.00
54910;BME280;63189;51.240;9.964;2023-02-21T13:57:35;97983.09;;;9.04;100.00
54910;BME280;63189;51.240;9.964;2023-02-21T14:08:28;97988.22;;;9.08;100.00
54910;BME280;63189;51.240;9.964;2023-02-21T14:11:09;97972.66;;;9.07;100.00
54910;BME280;63189;51.240;9.964;2023-02-21T14:14:03;97971.81;;;9.05;100.00
54910;BME280;63189;51.240;9.964;2023-02-21T14:16:45;97976.09;;;9.07;100.00
54910;BME280;63189;51.240;9.964;2023-02-21T14:19:23;97970.91;;;9.07;100.00
54910;BME280;63189;51.240;9.964;2023-02-21T14:21:56;97968.31;;;9.06;100.00
54910;BME280;63189;51.240;9.964;2023-02-21T14:24:25;97967.50;;;9.04;100.00
54910;BME280;63189;51.240;9.964;2023-02-21T14:29:37;97963.09;;;9.06;100.00
54910;BME280;63189;51.240;9.964;2023-02-21T14:39:51;97966.38;;;9.14;100.00
54910;BME280;63189;51.240;9.964;2023-02-21T14:50:44;97957.69;;;9.15;100.00
54910;BME280;63189;51.240;9.964;2023-02-21T15:05:19;97958.44;;;9.20;100.00
54910;BME280;63189;51.240;9.964;2023-02-21T15:07:54;97954.97;;;9.19;100.00
54910;BME280;63189;51.240;9.964;2023-02-21T15:10:30;97961.94;;;9.19;100.00
54910;BME280;63189;51.240;9.964;2023-02-21T15:13:01;97962.72;;;9.22;100.00
54910;BME280;63189;51.240;9.964;2023-02-21T15:15:37;97955.03;;;9.18;100.00
54910;BME280;63189;51.240;9.964;2023-02-21T15:18:09;97965.44;;;9.18;100.00
54910;BME280;63189;51.240;9.964;2023-02-21T15:20:40;97952.47;;;9.15;100.00
54910;BME280;63189;51.240;9.964;2023-02-21T15:25:35;97959.28;;;9.20;100.00
54910;BME280;63189;51.240;9.964;2023-02-21T15:28:03;97952.34;;;9.21;100.00
54910;BME280;63189;51.240;9.964;2023-02-21T15:33:18;97958.41;;;9.21;100.00